sensor_id;sensor_type;location;lat;lon;timestamp;P1;durP1;ratioP1;P2;durP2;ratioP2
13202;SDS011;6666;51.626;7.530;2024-01-16T00:02:13;14.85;;;7.57;;
13202;SDS011;6666;51.626;7.530;2024-01-16T00:04:41;11.80;;;6.25;;
13202;SDS011;6666;51.626;7.530;2024-01-16T00:07:10;18.23;;;7.18;;
13202;SDS011;6666;51.626;7.530;2024-01-16T00:09:38;14.20;;;6.80;;
13202;SDS011;6666;51.626;7.530;2024-01-16T00:12:06;14.02;;;6.78;;
13202;SDS011;6666;51.626;7.530;2024-01-16T00:14:35;14.02;;;7.50;;
13202;SDS011;6666;51.626;7.530;2024-01-16T00:17:04;16.52;;;7.82;;
13202;SDS011;6666;51.626;7.530;2024-01-16T00:19:34;18.40;;;7.97;;
13202;SDS011;6666;51.626;7.530;2024-01-16T00:22:02;16.80;;;8.50;;
13202;SDS011;6666;51.626;7.530;2024-01-16T00:24:31;18.13;;;8.57;;
13202;SDS011;6666;51.626;7.530;2024-01-16T00:26:59;19.67;;;8.18;;
13202;SDS011;6666;51.626;7.530;2024-01-16T00:29:27;20.23;;;8.23;;
13202;SDS011;6666;51.626;7.530;2024-01-16T00:31:57;16.73;;;8.30;;
13202;SDS011;6666;51.626;7.530;2024-01-16T00:34:25;16.13;;;8.20;;
13202;SDS011;6666;51.626;7.530;2024-01-16T00:36:54;18.40;;;8.20;;
13202;SDS011;6666;51.626;7.530;2024-01-16T00:39:22;18.15;;;8.38;;
13202;SDS011;6666;51.626;7.530;2024-01-16T00:41:50;16.98;;;7.90;;
13202;SDS011;6666;51.626;7.530;2024-01-16T00:44:18;21.87;;;9.23;;
13202;SDS011;6666;51.626;7.530;2024-01-16T00:46:46;21.45;;;8.52;;
13202;SDS011;6666;51.626;7.530;2024-01-16T00:49:14;24.25;;;10.40;;
13202;SDS011;6666;51.626;7.530;2024-01-16T00:51:47;22.65;;;9.57;;
13202;SDS011;6666;51.626;7.530;2024-01-16T00:54:16;18.77;;;9.00;;
13202;SDS011;6666;51.626;7.530;2024-01-16T00:56:44;19.63;;;7.93;;
13202;SDS011;6666;51.626;7.530;2024-01-16T00:59:12;16.95;;;8.13;;
13202;SDS011;6666;51.626;7.530;2024-01-16T01:01:40;11.90;;;6.55;;
13202;SDS011;6666;51.626;7.530;2024-01-16T01:04:08;17.38;;;6.88;;
13202;SDS011;6666;51.626;7.530;2024-01-16T01:06:36;11.45;;;6.70;;
13202;SDS011;6666;51.626;7.530;2024-01-16T01:09:04;12.65;;;6.80;;
13202;SDS011;6666;51.626;7.530;2024-01-16T01:11:34;14.00;;;6.30;;
13202;SDS011;6666;51.626;7.530;2024-01-16T01:14:02;16.50;;;7.40;;
13202;SDS011;6666;51.626;7.530;2024-01-16T01:16:30;15.57;;;7.50;;
13202;SDS011;6666;51.626;7.530;2024-01-16T01:18:59;19.85;;;7.53;;
13202;SDS011;6666;51.626;7.530;2024-01-16T01:21:27;20.48;;;8.00;;
13202;SDS011;6666;51.626;7.530;2024-01-16T01:23:55;19.33;;;7.40;;
13202;SDS011;6666;51.626;7.530;2024-01-16T01:26:23;17.55;;;6.95;;
13202;SDS011;6666;51.626;7.530;2024-01-16T01:28:52;15.73;;;7.10;;
13202;SDS011;6666;51.626;7.530;2024-01-16T01:31:20;16.98;;;7.00;;
13202;SDS011;6666;51.626;7.530;2024-01-16T01:33:48;17.50;;;6.95;;
13202;SDS011;6666;51.626;7.530;2024-01-16T01:36:16;17.35;;;6.88;;
13202;SDS011;6666;51.626;7.530;2024-01-16T01:38:44;16.17;;;6.80;;
13202;SDS011;6666;51.626;7.530;2024-01-16T01:41:13;15.60;;;6.63;;
13202;SDS011;6666;51.626;7.530;2024-01-16T01:43:41;16.02;;;7.40;;
13202;SDS011;6666;51.626;7.530;2024-01-16T01:46:11;18.17;;;7.55;;
13202;SDS011;6666;51.626;7.530;2024-01-16T01:48:41;19.45;;;7.80;;
13202;SDS011;6666;51.626;7.530;2024-01-16T01:51:10;27.80;;;8.18;;
13202;SDS011;6666;51.626;7.530;2024-01-16T01:53:41;15.70;;;7.20;;
13202;SDS011;6666;51.626;7.530;2024-01-16T01:56:11;17.80;;;8.15;;
13202;SDS011;6666;51.626;7.530;2024-01-16T01:58:43;15.37;;;7.67;;
13202;SDS011;6666;51.626;7.530;2024-01-16T02:01:14;13.00;;;7.60;;
13202;SDS011;6666;51.626;7.530;2024-01-16T02:03:45;11.02;;;7.10;;
13202;SDS011;6666;51.626;7.530;2024-01-16T02:06:13;17.42;;;7.40;;
13202;SDS011;6666;51.626;7.530;2024-01-16T02:08:43;24.42;;;9.30;;
13202;SDS011;6666;51.626;7.530;2024-01-16T02:11:12;17.00;;;8.40;;
13202;SDS011;6666;51.626;7.530;2024-01-16T02:13:41;22.58;;;7.55;;
13202;SDS011;6666;51.626;7.530;2024-01-16T02:16:18;15.40;;;6.78;;
13202;SDS011;6666;51.626;7.530;2024-01-16T02:18:47;14.13;;;7.05;;
13202;SDS011;6666;51.626;7.530;2024-01-16T02:21:17;17.27;;;7.43;;
13202;SDS011;6666;51.626;7.530;2024-01-16T02:23:49;14.68;;;7.25;;
13202;SDS011;6666;51.626;7.530;2024-01-16T02:26:17;11.98;;;6.95;;
13202;SDS011;6666;51.626;7.530;2024-01-16T02:28:46;14.95;;;6.90;;
13202;SDS011;6666;51.626;7.530;2024-01-16T02:31:14;16.00;;;7.15;;
13202;SDS011;6666;51.626;7.530;2024-01-16T02:33:44;11.25;;;6.97;;
13202;SDS011;6666;51.626;7.530;2024-01-16T02:36:12;12.32;;;6.72;;
13202;SDS011;6666;51.626;7.530;2024-01-16T02:38:40;13.88;;;6.57;;
13202;SDS011;6666;51.626;7.530;2024-01-16T02:41:14;11.33;;;6.80;;
13202;SDS011;6666;51.626;7.530;2024-01-16T02:43:43;14.47;;;7.20;;
13202;SDS011;6666;51.626;7.530;2024-01-16T02:46:11;12.83;;;6.67;;
13202;SDS011;6666;51.626;7.530;2024-01-16T02:48:39;16.15;;;6.97;;
13202;SDS011;6666;51.626;7.530;2024-01-16T02:51:08;11.23;;;7.00;;
13202;SDS011;6666;51.626;7.530;2024-01-16T02:53:37;14.10;;;7.00;;
13202;SDS011;6666;51.626;7.530;2024-01-16T02:56:05;17.42;;;6.82;;
13202;SDS011;6666;51.626;7.530;2024-01-16T02:58:34;14.30;;;6.50;;
13202;SDS011;6666;51.626;7.530;2024-01-16T03:01:02;9.97;;;5.90;;
13202;SDS011;6666;51.626;7.530;2024-01-16T03:03:31;13.63;;;6.63;;
13202;SDS011;6666;51.626;7.530;2024-01-16T03:05:59;12.70;;;7.00;;
13202;SDS011;6666;51.626;7.530;2024-01-16T03:08:27;15.10;;;6.57;;
13202;SDS011;6666;51.626;7.530;2024-01-16T03:10:55;13.48;;;6.50;;
13202;SDS011;6666;51.626;7.530;2024-01-16T03:13:24;10.18;;;6.50;;
13202;SDS011;6666;51.626;7.530;2024-01-16T03:15:53;20.60;;;7.05;;
13202;SDS011;6666;51.626;7.530;2024-01-16T03:18:24;10.85;;;6.63;;
13202;SDS011;6666;51.626;7.530;2024-01-16T03:20:52;14.10;;;7.50;;
13202;SDS011;6666;51.626;7.530;2024-01-16T03:23:20;12.35;;;6.50;;
13202;SDS011;6666;51.626;7.530;2024-01-16T03:25:49;18.27;;;6.90;;
13202;SDS011;6666;51.626;7.530;2024-01-16T03:28:17;13.00;;;7.05;;
13202;SDS011;6666;51.626;7.530;2024-01-16T03:30:45;14.77;;;8.55;;
13202;SDS011;6666;51.626;7.530;2024-01-16T03:33:15;14.60;;;8.30;;
13202;SDS011;6666;51.626;7.530;2024-01-16T03:35:43;14.10;;;8.00;;
13202;SDS011;6666;51.626;7.530;2024-01-16T03:38:12;20.45;;;8.82;;
13202;SDS011;6666;51.626;7.530;2024-01-16T03:40:40;18.43;;;8.67;;
13202;SDS011;6666;51.626;7.530;2024-01-16T03:43:08;14.52;;;8.98;;
13202;SDS011;6666;51.626;7.530;2024-01-16T03:45:36;18.35;;;9.88;;
13202;SDS011;6666;51.626;7.530;2024-01-16T03:48:05;19.30;;;9.40;;
13202;SDS011;6666;51.626;7.530;2024-01-16T03:50:35;18.90;;;9.65;;
13202;SDS011;6666;51.626;7.530;2024-01-16T03:53:03;18.05;;;9.60;;
13202;SDS011;6666;51.626;7.530;2024-01-16T03:55:31;17.80;;;9.10;;
13202;SDS011;6666;51.626;7.530;2024-01-16T03:57:59;16.08;;;9.20;;
13202;SDS011;6666;51.626;7.530;2024-01-16T04:00:27;22.30;;;9.70;;
13202;SDS011;6666;51.626;7.530;2024-01-16T04:02:56;19.90;;;10.48;;
13202;SDS011;6666;51.626;7.530;2024-01-16T04:05:24;26.48;;;11.20;;
13202;SDS011;6666;51.626;7.530;2024-01-16T04:07:53;25.85;;;10.85;;
13202;SDS011;6666;51.626;7.530;2024-01-16T04:10:22;17.90;;;10.00;;
13202;SDS011;6666;51.626;7.530;2024-01-16T04:12:50;18.83;;;9.90;;
13202;SDS011;6666;51.626;7.530;2024-01-16T04:15:18;17.60;;;9.80;;
13202;SDS011;6666;51.626;7.530;2024-01-16T04:17:49;18.13;;;11.10;;
13202;SDS011;6666;51.626;7.530;2024-01-16T04:20:17;18.00;;;11.02;;
13202;SDS011;6666;51.626;7.530;2024-01-16T04:22:45;19.50;;;11.40;;
13202;SDS011;6666;51.626;7.530;2024-01-16T04:25:15;19.83;;;11.02;;
13202;SDS011;6666;51.626;7.530;2024-01-16T04:27:44;22.52;;;12.05;;
13202;SDS011;6666;51.626;7.530;2024-01-16T04:30:12;18.88;;;11.38;;
13202;SDS011;6666;51.626;7.530;2024-01-16T04:32:41;23.55;;;10.90;;
13202;SDS011;6666;51.626;7.530;2024-01-16T04:35:09;18.97;;;10.87;;
13202;SDS011;6666;51.626;7.530;2024-01-16T04:37:37;22.03;;;10.73;;
13202;SDS011;6666;51.626;7.530;2024-01-16T04:40:06;17.90;;;10.40;;
13202;SDS011;6666;51.626;7.530;2024-01-16T04:42:35;19.83;;;11.45;;
13202;SDS011;6666;51.626;7.530;2024-01-16T04:45:04;21.40;;;10.82;;
13202;SDS011;6666;51.626;7.530;2024-01-16T04:47:33;20.50;;;10.73;;
13202;SDS011;6666;51.626;7.530;2024-01-16T04:50:01;19.77;;;10.65;;
13202;SDS011;6666;51.626;7.530;2024-01-16T04:52:30;19.05;;;10.60;;
13202;SDS011;6666;51.626;7.530;2024-01-16T04:54:58;21.25;;;11.60;;
13202;SDS011;6666;51.626;7.530;2024-01-16T04:57:27;24.48;;;11.60;;
13202;SDS011;6666;51.626;7.530;2024-01-16T04:59:57;20.00;;;12.13;;
13202;SDS011;6666;51.626;7.530;2024-01-16T05:02:25;19.47;;;11.00;;
13202;SDS011;6666;51.626;7.530;2024-01-16T05:04:53;19.75;;;10.98;;
13202;SDS011;6666;51.626;7.530;2024-01-16T05:07:23;18.75;;;10.65;;
13202;SDS011;6666;51.626;7.530;2024-01-16T05:09:51;21.63;;;10.30;;
13202;SDS011;6666;51.626;7.530;2024-01-16T05:12:20;21.05;;;10.82;;
13202;SDS011;6666;51.626;7.530;2024-01-16T05:14:49;20.10;;;10.75;;
13202;SDS011;6666;51.626;7.530;2024-01-16T05:17:18;20.02;;;10.70;;
13202;SDS011;6666;51.626;7.530;2024-01-16T05:19:46;19.80;;;10.57;;
13202;SDS011;6666;51.626;7.530;2024-01-16T05:22:14;17.58;;;10.40;;
13202;SDS011;6666;51.626;7.530;2024-01-16T05:24:43;17.67;;;9.70;;
13202;SDS011;6666;51.626;7.530;2024-01-16T05:27:11;21.65;;;10.50;;
13202;SDS011;6666;51.626;7.530;2024-01-16T05:29:40;18.02;;;9.68;;
13202;SDS011;6666;51.626;7.530;2024-01-16T05:32:10;23.33;;;10.40;;
13202;SDS011;6666;51.626;7.530;2024-01-16T05:34:40;18.67;;;10.15;;
13202;SDS011;6666;51.626;7.530;2024-01-16T05:37:08;20.13;;;10.75;;
13202;SDS011;6666;51.626;7.530;2024-01-16T05:39:37;17.30;;;10.50;;
13202;SDS011;6666;51.626;7.530;2024-01-16T05:42:05;19.63;;;10.18;;
13202;SDS011;6666;51.626;7.530;2024-01-16T05:44:33;21.25;;;11.13;;
13202;SDS011;6666;51.626;7.530;2024-01-16T05:47:01;21.95;;;10.55;;
13202;SDS011;6666;51.626;7.530;2024-01-16T05:49:30;19.35;;;9.93;;
13202;SDS011;6666;51.626;7.530;2024-01-16T05:52:00;18.00;;;9.80;;
13202;SDS011;6666;51.626;7.530;2024-01-16T05:54:28;17.58;;;10.00;;
13202;SDS011;6666;51.626;7.530;2024-01-16T05:56:56;18.83;;;9.30;;
13202;SDS011;6666;51.626;7.530;2024-01-16T05:59:24;20.48;;;10.20;;
13202;SDS011;6666;51.626;7.530;2024-01-16T06:01:52;18.15;;;9.90;;
13202;SDS011;6666;51.626;7.530;2024-01-16T06:04:21;20.30;;;9.90;;
13202;SDS011;6666;51.626;7.530;2024-01-16T06:06:49;19.20;;;10.15;;
13202;SDS011;6666;51.626;7.530;2024-01-16T06:09:18;19.88;;;10.68;;
13202;SDS011;6666;51.626;7.530;2024-01-16T06:11:46;15.65;;;9.77;;
13202;SDS011;6666;51.626;7.530;2024-01-16T06:14:15;15.02;;;9.50;;
13202;SDS011;6666;51.626;7.530;2024-01-16T06:16:48;17.90;;;8.82;;
13202;SDS011;6666;51.626;7.530;2024-01-16T06:19:17;17.27;;;8.40;;
13202;SDS011;6666;51.626;7.530;2024-01-16T06:21:46;16.48;;;8.57;;
13202;SDS011;6666;51.626;7.530;2024-01-16T06:24:14;16.20;;;8.98;;
13202;SDS011;6666;51.626;7.530;2024-01-16T06:26:43;17.88;;;9.00;;
13202;SDS011;6666;51.626;7.530;2024-01-16T06:29:12;13.82;;;8.10;;
13202;SDS011;6666;51.626;7.530;2024-01-16T06:31:53;16.60;;;8.75;;
13202;SDS011;6666;51.626;7.530;2024-01-16T06:34:22;12.20;;;7.78;;
13202;SDS011;6666;51.626;7.530;2024-01-16T06:36:50;15.00;;;8.50;;
13202;SDS011;6666;51.626;7.530;2024-01-16T06:39:18;14.40;;;8.27;;
13202;SDS011;6666;51.626;7.530;2024-01-16T06:41:48;14.82;;;8.75;;
13202;SDS011;6666;51.626;7.530;2024-01-16T06:44:16;15.48;;;8.40;;
13202;SDS011;6666;51.626;7.530;2024-01-16T06:46:44;13.80;;;7.63;;
13202;SDS011;6666;51.626;7.530;2024-01-16T06:49:12;11.20;;;7.35;;
13202;SDS011;6666;51.626;7.530;2024-01-16T06:51:41;12.73;;;7.07;;
13202;SDS011;6666;51.626;7.530;2024-01-16T06:54:09;11.50;;;7.10;;
13202;SDS011;6666;51.626;7.530;2024-01-16T06:56:37;14.77;;;6.70;;
13202;SDS011;6666;51.626;7.530;2024-01-16T06:59:07;10.98;;;7.10;;
13202;SDS011;6666;51.626;7.530;2024-01-16T07:01:37;11.70;;;7.60;;
13202;SDS011;6666;51.626;7.530;2024-01-16T07:04:06;12.93;;;7.03;;
13202;SDS011;6666;51.626;7.530;2024-01-16T07:06:34;12.93;;;7.57;;
13202;SDS011;6666;51.626;7.530;2024-01-16T07:09:02;14.32;;;7.55;;
13202;SDS011;6666;51.626;7.530;2024-01-16T07:11:32;14.23;;;7.28;;
13202;SDS011;6666;51.626;7.530;2024-01-16T07:14:00;18.83;;;8.75;;
13202;SDS011;6666;51.626;7.530;2024-01-16T07:16:31;20.08;;;9.30;;
13202;SDS011;6666;51.626;7.530;2024-01-16T07:18:59;14.57;;;8.73;;
13202;SDS011;6666;51.626;7.530;2024-01-16T07:21:27;16.80;;;8.70;;
13202;SDS011;6666;51.626;7.530;2024-01-16T07:23:55;14.90;;;8.37;;
13202;SDS011;6666;51.626;7.530;2024-01-16T07:26:24;16.85;;;8.82;;
13202;SDS011;6666;51.626;7.530;2024-01-16T07:28:52;17.83;;;9.35;;
13202;SDS011;6666;51.626;7.530;2024-01-16T07:31:20;20.25;;;10.13;;
13202;SDS011;6666;51.626;7.530;2024-01-16T07:33:49;20.77;;;10.80;;
13202;SDS011;6666;51.626;7.530;2024-01-16T07:36:18;19.65;;;10.68;;
13202;SDS011;6666;51.626;7.530;2024-01-16T07:38:46;15.75;;;9.93;;
13202;SDS011;6666;51.626;7.530;2024-01-16T07:41:14;17.92;;;10.30;;
13202;SDS011;6666;51.626;7.530;2024-01-16T07:43:42;16.15;;;9.60;;
13202;SDS011;6666;51.626;7.530;2024-01-16T07:46:15;17.52;;;10.60;;
13202;SDS011;6666;51.626;7.530;2024-01-16T07:48:44;20.65;;;11.27;;
13202;SDS011;6666;51.626;7.530;2024-01-16T07:51:14;21.87;;;11.03;;
13202;SDS011;6666;51.626;7.530;2024-01-16T07:53:42;24.95;;;11.15;;
13202;SDS011;6666;51.626;7.530;2024-01-16T07:56:10;18.45;;;11.82;;
13202;SDS011;6666;51.626;7.530;2024-01-16T07:58:38;21.00;;;13.63;;
13202;SDS011;6666;51.626;7.530;2024-01-16T08:01:07;20.20;;;12.75;;
13202;SDS011;6666;51.626;7.530;2024-01-16T08:03:35;27.98;;;12.50;;
13202;SDS011;6666;51.626;7.530;2024-01-16T08:06:03;23.25;;;13.40;;
13202;SDS011;6666;51.626;7.530;2024-01-16T08:08:34;24.15;;;12.80;;
13202;SDS011;6666;51.626;7.530;2024-01-16T08:11:02;18.73;;;12.23;;
13202;SDS011;6666;51.626;7.530;2024-01-16T08:13:30;26.08;;;12.65;;
13202;SDS011;6666;51.626;7.530;2024-01-16T08:15:59;22.83;;;13.02;;
13202;SDS011;6666;51.626;7.530;2024-01-16T08:18:27;28.45;;;14.20;;
13202;SDS011;6666;51.626;7.530;2024-01-16T08:20:56;22.73;;;13.75;;
13202;SDS011;6666;51.626;7.530;2024-01-16T08:23:24;23.30;;;13.13;;
13202;SDS011;6666;51.626;7.530;2024-01-16T08:25:54;26.90;;;13.38;;
13202;SDS011;6666;51.626;7.530;2024-01-16T08:28:22;24.35;;;12.55;;
13202;SDS011;6666;51.626;7.530;2024-01-16T08:30:51;21.63;;;12.60;;
13202;SDS011;6666;51.626;7.530;2024-01-16T08:33:19;27.35;;;12.10;;
13202;SDS011;6666;51.626;7.530;2024-01-16T08:35:59;20.20;;;11.38;;
13202;SDS011;6666;51.626;7.530;2024-01-16T08:38:28;17.52;;;11.50;;
13202;SDS011;6666;51.626;7.530;2024-01-16T08:40:57;16.30;;;9.60;;
13202;SDS011;6666;51.626;7.530;2024-01-16T08:43:25;17.80;;;9.85;;
13202;SDS011;6666;51.626;7.530;2024-01-16T08:45:53;16.60;;;9.13;;
13202;SDS011;6666;51.626;7.530;2024-01-16T08:48:22;18.90;;;8.43;;
13202;SDS011;6666;51.626;7.530;2024-01-16T08:50:50;16.17;;;8.18;;
13202;SDS011;6666;51.626;7.530;2024-01-16T08:53:20;15.45;;;7.80;;
13202;SDS011;6666;51.626;7.530;2024-01-16T08:55:50;14.50;;;7.28;;
13202;SDS011;6666;51.626;7.530;2024-01-16T08:58:20;13.73;;;6.18;;
13202;SDS011;6666;51.626;7.530;2024-01-16T09:00:48;17.02;;;7.00;;
13202;SDS011;6666;51.626;7.530;2024-01-16T09:03:16;12.32;;;5.93;;
13202;SDS011;6666;51.626;7.530;2024-01-16T09:05:45;12.25;;;4.90;;
13202;SDS011;6666;51.626;7.530;2024-01-16T09:08:13;13.52;;;5.57;;
13202;SDS011;6666;51.626;7.530;2024-01-16T09:10:41;14.10;;;4.88;;
13202;SDS011;6666;51.626;7.530;2024-01-16T09:13:09;9.55;;;4.80;;
13202;SDS011;6666;51.626;7.530;2024-01-16T09:15:39;12.77;;;4.10;;
13202;SDS011;6666;51.626;7.530;2024-01-16T09:18:08;8.43;;;4.18;;
13202;SDS011;6666;51.626;7.530;2024-01-16T09:20:36;9.43;;;4.20;;
13202;SDS011;6666;51.626;7.530;2024-01-16T09:23:04;14.70;;;4.70;;
13202;SDS011;6666;51.626;7.530;2024-01-16T09:25:32;12.07;;;4.05;;
13202;SDS011;6666;51.626;7.530;2024-01-16T09:28:01;12.13;;;3.80;;
13202;SDS011;6666;51.626;7.530;2024-01-16T09:30:29;8.80;;;3.70;;
13202;SDS011;6666;51.626;7.530;2024-01-16T09:33:00;11.18;;;3.83;;
13202;SDS011;6666;51.626;7.530;2024-01-16T09:35:30;8.13;;;3.28;;
13202;SDS011;6666;51.626;7.530;2024-01-16T09:37:58;7.65;;;3.40;;
13202;SDS011;6666;51.626;7.530;2024-01-16T09:40:29;12.77;;;3.10;;
13202;SDS011;6666;51.626;7.530;2024-01-16T09:42:57;8.85;;;3.20;;
13202;SDS011;6666;51.626;7.530;2024-01-16T09:45:25;8.95;;;3.45;;
13202;SDS011;6666;51.626;7.530;2024-01-16T09:47:56;12.30;;;3.50;;
13202;SDS011;6666;51.626;7.530;2024-01-16T09:50:28;8.43;;;2.90;;
13202;SDS011;6666;51.626;7.530;2024-01-16T09:52:56;7.18;;;3.10;;
13202;SDS011;6666;51.626;7.530;2024-01-16T09:55:25;9.63;;;3.20;;
13202;SDS011;6666;51.626;7.530;2024-01-16T09:57:54;7.53;;;2.90;;
13202;SDS011;6666;51.626;7.530;2024-01-16T10:00:23;9.52;;;3.00;;
13202;SDS011;6666;51.626;7.530;2024-01-16T10:02:52;9.27;;;3.20;;
13202;SDS011;6666;51.626;7.530;2024-01-16T10:05:25;9.50;;;3.10;;
13202;SDS011;6666;51.626;7.530;2024-01-16T10:07:55;9.32;;;3.10;;
13202;SDS011;6666;51.626;7.530;2024-01-16T10:10:24;10.88;;;2.80;;
13202;SDS011;6666;51.626;7.530;2024-01-16T10:13:12;13.70;;;3.35;;
13202;SDS011;6666;51.626;7.530;2024-01-16T10:15:41;7.30;;;2.53;;
13202;SDS011;6666;51.626;7.530;2024-01-16T10:18:21;10.45;;;3.10;;
13202;SDS011;6666;51.626;7.530;2024-01-16T10:20:51;8.48;;;2.72;;
13202;SDS011;6666;51.626;7.530;2024-01-16T10:23:25;12.90;;;3.05;;
13202;SDS011;6666;51.626;7.530;2024-01-16T10:28:38;8.52;;;2.55;;
13202;SDS011;6666;51.626;7.530;2024-01-16T10:31:07;7.30;;;2.70;;
13202;SDS011;6666;51.626;7.530;2024-01-16T10:33:36;6.00;;;2.50;;
13202;SDS011;6666;51.626;7.530;2024-01-16T10:36:09;6.35;;;2.60;;
13202;SDS011;6666;51.626;7.530;2024-01-16T10:38:41;10.63;;;2.97;;
13202;SDS011;6666;51.626;7.530;2024-01-16T10:41:10;7.85;;;3.20;;
13202;SDS011;6666;51.626;7.530;2024-01-16T10:43:40;11.43;;;3.00;;
13202;SDS011;6666;51.626;7.530;2024-01-16T10:46:12;5.03;;;2.20;;
13202;SDS011;6666;51.626;7.530;2024-01-16T10:48:42;10.55;;;2.67;;
13202;SDS011;6666;51.626;7.530;2024-01-16T10:51:13;7.50;;;2.72;;
13202;SDS011;6666;51.626;7.530;2024-01-16T10:53:44;9.17;;;3.10;;
13202;SDS011;6666;51.626;7.530;2024-01-16T10:56:13;12.57;;;3.22;;
13202;SDS011;6666;51.626;7.530;2024-01-16T10:58:44;10.38;;;2.88;;
13202;SDS011;6666;51.626;7.530;2024-01-16T11:01:15;5.75;;;2.47;;
13202;SDS011;6666;51.626;7.530;2024-01-16T11:03:46;6.70;;;2.72;;
13202;SDS011;6666;51.626;7.530;2024-01-16T11:06:16;8.05;;;2.47;;
13202;SDS011;6666;51.626;7.530;2024-01-16T11:08:47;9.20;;;2.80;;
13202;SDS011;6666;51.626;7.530;2024-01-16T11:11:16;11.63;;;2.80;;
13202;SDS011;6666;51.626;7.530;2024-01-16T11:13:45;10.70;;;2.70;;
13202;SDS011;6666;51.626;7.530;2024-01-16T11:16:13;8.27;;;2.60;;
13202;SDS011;6666;51.626;7.530;2024-01-16T11:18:42;7.25;;;2.67;;
13202;SDS011;6666;51.626;7.530;2024-01-16T11:21:10;8.32;;;3.13;;
13202;SDS011;6666;51.626;7.530;2024-01-16T11:23:44;8.55;;;2.67;;
13202;SDS011;6666;51.626;7.530;2024-01-16T11:26:28;5.77;;;2.70;;
13202;SDS011;6666;51.626;7.530;2024-01-16T11:29:00;11.13;;;3.15;;
13202;SDS011;6666;51.626;7.530;2024-01-16T11:31:31;9.00;;;3.30;;
13202;SDS011;6666;51.626;7.530;2024-01-16T11:34:01;7.15;;;2.53;;
13202;SDS011;6666;51.626;7.530;2024-01-16T11:36:50;9.13;;;3.15;;
13202;SDS011;6666;51.626;7.530;2024-01-16T11:39:22;6.03;;;2.30;;
13202;SDS011;6666;51.626;7.530;2024-01-16T11:41:55;15.68;;;3.00;;
13202;SDS011;6666;51.626;7.530;2024-01-16T11:44:36;9.77;;;2.72;;
13202;SDS011;6666;51.626;7.530;2024-01-16T11:47:09;8.90;;;3.03;;
13202;SDS011;6666;51.626;7.530;2024-01-16T11:49:44;6.28;;;2.83;;
13202;SDS011;6666;51.626;7.530;2024-01-16T11:52:13;12.70;;;2.97;;
13202;SDS011;6666;51.626;7.530;2024-01-16T11:54:42;7.85;;;2.30;;
13202;SDS011;6666;51.626;7.530;2024-01-16T12:00:20;10.93;;;3.20;;
13202;SDS011;6666;51.626;7.530;2024-01-16T12:02:49;8.73;;;2.57;;
13202;SDS011;6666;51.626;7.530;2024-01-16T12:05:21;8.93;;;2.40;;
13202;SDS011;6666;51.626;7.530;2024-01-16T12:07:51;7.35;;;2.75;;
13202;SDS011;6666;51.626;7.530;2024-01-16T12:10:21;9.27;;;3.10;;
13202;SDS011;6666;51.626;7.530;2024-01-16T12:12:57;8.25;;;3.13;;
13202;SDS011;6666;51.626;7.530;2024-01-16T12:15:30;8.25;;;2.70;;
13202;SDS011;6666;51.626;7.530;2024-01-16T12:17:59;9.93;;;3.43;;
13202;SDS011;6666;51.626;7.530;2024-01-16T12:20:29;6.93;;;2.78;;
13202;SDS011;6666;51.626;7.530;2024-01-16T12:23:00;8.75;;;3.10;;
13202;SDS011;6666;51.626;7.530;2024-01-16T12:25:29;6.55;;;2.53;;
13202;SDS011;6666;51.626;7.530;2024-01-16T12:28:19;7.10;;;2.65;;
13202;SDS011;6666;51.626;7.530;2024-01-16T12:30:58;7.20;;;2.90;;
13202;SDS011;6666;51.626;7.530;2024-01-16T12:33:28;5.10;;;2.40;;
13202;SDS011;6666;51.626;7.530;2024-01-16T12:36:00;7.55;;;3.35;;
13202;SDS011;6666;51.626;7.530;2024-01-16T12:38:31;10.32;;;3.30;;
13202;SDS011;6666;51.626;7.530;2024-01-16T12:40:59;6.20;;;2.20;;
13202;SDS011;6666;51.626;7.530;2024-01-16T12:43:31;6.80;;;2.90;;
13202;SDS011;6666;51.626;7.530;2024-01-16T12:46:00;9.55;;;3.10;;
13202;SDS011;6666;51.626;7.530;2024-01-16T12:48:29;6.88;;;2.90;;
13202;SDS011;6666;51.626;7.530;2024-01-16T12:50:58;8.10;;;2.95;;
13202;SDS011;6666;51.626;7.530;2024-01-16T12:53:28;8.50;;;3.10;;
13202;SDS011;6666;51.626;7.530;2024-01-16T12:55:58;6.82;;;3.00;;
13202;SDS011;6666;51.626;7.530;2024-01-16T12:58:32;12.73;;;3.50;;
13202;SDS011;6666;51.626;7.530;2024-01-16T13:03:54;9.48;;;2.80;;
13202;SDS011;6666;51.626;7.530;2024-01-16T13:06:23;10.55;;;3.10;;
13202;SDS011;6666;51.626;7.530;2024-01-16T13:09:03;8.48;;;2.85;;
13202;SDS011;6666;51.626;7.530;2024-01-16T13:11:45;7.00;;;2.90;;
13202;SDS011;6666;51.626;7.530;2024-01-16T13:14:15;7.37;;;2.90;;
13202;SDS011;6666;51.626;7.530;2024-01-16T13:16:44;5.68;;;2.60;;
13202;SDS011;6666;51.626;7.530;2024-01-16T13:19:12;8.35;;;3.75;;
13202;SDS011;6666;51.626;7.530;2024-01-16T13:21:43;12.63;;;3.22;;
13202;SDS011;6666;51.626;7.530;2024-01-16T13:24:11;9.68;;;2.60;;
13202;SDS011;6666;51.626;7.530;2024-01-16T13:26:40;9.88;;;3.05;;
13202;SDS011;6666;51.626;7.530;2024-01-16T13:29:08;9.27;;;3.35;;
13202;SDS011;6666;51.626;7.530;2024-01-16T13:31:38;7.70;;;2.70;;
13202;SDS011;6666;51.626;7.530;2024-01-16T13:34:06;8.10;;;2.90;;
13202;SDS011;6666;51.626;7.530;2024-01-16T13:36:35;10.13;;;3.13;;
13202;SDS011;6666;51.626;7.530;2024-01-16T13:39:06;10.55;;;2.90;;
13202;SDS011;6666;51.626;7.530;2024-01-16T13:41:39;12.02;;;2.83;;
13202;SDS011;6666;51.626;7.530;2024-01-16T13:44:08;5.60;;;2.70;;
13202;SDS011;6666;51.626;7.530;2024-01-16T13:46:38;6.53;;;3.10;;
13202;SDS011;6666;51.626;7.530;2024-01-16T13:49:26;9.48;;;3.00;;
13202;SDS011;6666;51.626;7.530;2024-01-16T13:51:55;4.38;;;2.50;;
13202;SDS011;6666;51.626;7.530;2024-01-16T13:54:23;5.63;;;3.05;;
13202;SDS011;6666;51.626;7.530;2024-01-16T13:56:52;14.70;;;3.20;;
13202;SDS011;6666;51.626;7.530;2024-01-16T13:59:32;10.32;;;3.53;;
13202;SDS011;6666;51.626;7.530;2024-01-16T14:02:02;7.93;;;3.40;;
13202;SDS011;6666;51.626;7.530;2024-01-16T14:04:32;6.28;;;3.03;;
13202;SDS011;6666;51.626;7.530;2024-01-16T14:07:02;6.15;;;2.90;;
13202;SDS011;6666;51.626;7.530;2024-01-16T14:09:39;10.18;;;2.90;;
13202;SDS011;6666;51.626;7.530;2024-01-16T14:12:11;10.68;;;3.10;;
13202;SDS011;6666;51.626;7.530;2024-01-16T14:14:40;12.10;;;3.20;;
13202;SDS011;6666;51.626;7.530;2024-01-16T14:17:11;10.70;;;3.85;;
13202;SDS011;6666;51.626;7.530;2024-01-16T14:19:39;11.25;;;3.10;;
13202;SDS011;6666;51.626;7.530;2024-01-16T14:22:07;8.95;;;3.88;;
13202;SDS011;6666;51.626;7.530;2024-01-16T14:24:36;9.40;;;3.80;;
13202;SDS011;6666;51.626;7.530;2024-01-16T14:27:04;15.05;;;4.30;;
13202;SDS011;6666;51.626;7.530;2024-01-16T14:29:33;13.02;;;4.60;;
13202;SDS011;6666;51.626;7.530;2024-01-16T14:32:03;9.43;;;3.80;;
13202;SDS011;6666;51.626;7.530;2024-01-16T14:34:33;12.38;;;4.30;;
13202;SDS011;6666;51.626;7.530;2024-01-16T14:37:01;8.77;;;4.00;;
13202;SDS011;6666;51.626;7.530;2024-01-16T14:39:30;10.55;;;3.80;;
13202;SDS011;6666;51.626;7.530;2024-01-16T14:41:58;10.30;;;3.63;;
13202;SDS011;6666;51.626;7.530;2024-01-16T14:44:30;7.95;;;3.80;;
13202;SDS011;6666;51.626;7.530;2024-01-16T14:46:58;12.65;;;3.47;;
13202;SDS011;6666;51.626;7.530;2024-01-16T14:49:26;11.60;;;3.80;;
13202;SDS011;6666;51.626;7.530;2024-01-16T14:51:59;9.30;;;3.70;;
13202;SDS011;6666;51.626;7.530;2024-01-16T14:54:28;10.00;;;3.55;;
13202;SDS011;6666;51.626;7.530;2024-01-16T14:56:56;12.27;;;4.18;;
13202;SDS011;6666;51.626;7.530;2024-01-16T14:59:25;8.88;;;3.70;;
13202;SDS011;6666;51.626;7.530;2024-01-16T15:01:53;9.27;;;3.97;;
13202;SDS011;6666;51.626;7.530;2024-01-16T15:04:21;10.65;;;4.00;;
13202;SDS011;6666;51.626;7.530;2024-01-16T15:06:50;7.35;;;3.20;;
13202;SDS011;6666;51.626;7.530;2024-01-16T15:09:20;10.25;;;4.20;;
13202;SDS011;6666;51.626;7.530;2024-01-16T15:11:49;10.80;;;3.78;;